Petrel — FGA7362 — position and weather

sailwx.info

Track history (hours):
 
Tides and Currents Weather Stations Pressure Air Temp Water Temp Dewpoint Dewpoint Depression Visibility Wind Speed Wind Dir Waves Ship Positions

Petrel

Last reported at 2017-Sep-17 15:36 UTC. Time now 2017-Sep-25 15:22 UTC.
Position N 48°23' W 004°29'.

Length 27 m; draft 1.8 m.

Type: Passenger vessel. MMSI: 227009960.

Date/timePositionNaut miles runAvg speedWind from/ knotsBaromVisibWave heightAir tempDewpointWater temp
2017-Sep-17 15:36N 48°23' W 004°29'0 1.3
2017-Sep-17 15:30N 48°23' W 004°29'1020.9
2017-Sep-17 15:01N 48°19' W 004°44'4 8.9
2017-Sep-17 14:31N 48°22' W 004°49'5 9.8
2017-Sep-17 14:00N 48°19' W 004°55'612.2
2017-Sep-17 13:30N 48°22' W 004°47'4 7.4
2017-Sep-17 13:01N 48°22' W 004°52'3 5.6
2017-Sep-17 12:31N 48°19' W 004°53'5 9.5
2017-Sep-17 12:00N 48°22' W 004°47'0 0.0
2017-Sep-17 11:30N 48°22' W 004°47'0 0.0
2017-Sep-17 11:00N 48°22' W 004°47'0 0.0
2017-Sep-17 10:30N 48°22' W 004°47'3 6.0
2017-Sep-17 10:01N 48°23' W 004°51'4 7.3
2017-Sep-17 09:31N 48°19' W 004°54'510.2
2017-Sep-17 09:00N 48°22' W 004°47'2 3.3
2017-Sep-17 08:31N 48°20' W 004°47'1223.4
2017-Sep-17 08:00N 48°22' W 004°30'  
2017-Sep-07 18:07N 48°23' W 004°29'0 2.3
2017-Sep-07 18:00N 48°23' W 004°29'714.5
2017-Sep-07 17:31N 48°17' W 004°35'816.6
2017-Sep-07 17:00N 48°20' W 004°47'713.5
2017-Sep-07 16:30N 48°25' W 004°53'815.4
2017-Sep-07 16:00N 48°28' W 005°03'  
Track history (hours):
 
Tides and Currents Weather Stations Pressure Air Temp Water Temp Dewpoint Dewpoint Depression Visibility Wind Speed Wind Dir Waves Ship Positions

Petrel

Last reported at 2017-Sep-17 15:36 UTC. Time now 2017-Sep-25 15:22 UTC.
Position N 48°23' W 004°29'.

Length 27 m; draft 1.8 m.

Type: Passenger vessel. MMSI: 227009960.

Date/timePositionNaut miles runAvg speedWind from/ knotsBaromVisibWave heightAir tempDewpointWater temp
2017-Sep-17 15:36N 48°23' W 004°29'0 1.3
2017-Sep-17 15:30N 48°23' W 004°29'1020.9
2017-Sep-17 15:01N 48°19' W 004°44'4 8.9
2017-Sep-17 14:31N 48°22' W 004°49'5 9.8
2017-Sep-17 14:00N 48°19' W 004°55'612.2
2017-Sep-17 13:30N 48°22' W 004°47'4 7.4
2017-Sep-17 13:01N 48°22' W 004°52'3 5.6
2017-Sep-17 12:31N 48°19' W 004°53'5 9.5
2017-Sep-17 12:00N 48°22' W 004°47'0 0.0
2017-Sep-17 11:30N 48°22' W 004°47'0 0.0
2017-Sep-17 11:00N 48°22' W 004°47'0 0.0
2017-Sep-17 10:30N 48°22' W 004°47'3 6.0
2017-Sep-17 10:01N 48°23' W 004°51'4 7.3
2017-Sep-17 09:31N 48°19' W 004°54'510.2
2017-Sep-17 09:00N 48°22' W 004°47'2 3.3
2017-Sep-17 08:31N 48°20' W 004°47'1223.4
2017-Sep-17 08:00N 48°22' W 004°30'  
2017-Sep-07 18:07N 48°23' W 004°29'0 2.3
2017-Sep-07 18:00N 48°23' W 004°29'714.5
2017-Sep-07 17:31N 48°17' W 004°35'816.6
2017-Sep-07 17:00N 48°20' W 004°47'713.5
2017-Sep-07 16:30N 48°25' W 004°53'815.4
2017-Sep-07 16:00N 48°28' W 005°03'  

Dump ship's entire track history